This is the latest recevied weather packets stored in our database for station/object K7AC-13. If no packets are shown the sender has not sent any weather packets the latest 10 day(s).
| Time | Temp. | Humidity | Pressure | Rain* | Wind** | Luminosity | Snow |
|---|---|---|---|---|---|---|---|
| 1777289453 | 11.67° C | 50% | 1013.3 hPa | 0 mm | - | - | - |
| 1777285848 | 12.78° C | 45% | 1013.2 hPa | 0 mm | - | - | - |
| 1777274161 | 16.67° C | 35% | 1013.4 hPa | 0 mm | - | - | - |
| 1777261547 | 20.56° C | 33% | 1012 hPa | 0 mm | - | - | - |
| 1777259751 | 21.11° C | 32% | 1011.7 hPa | 0 mm | - | - | - |
| 1777253449 | 23.33° C | 28% | 1010.6 hPa | 0 mm | - | - | - |
| 1777249852 | 23.89° C | 26% | 1010.2 hPa | 0 mm | - | - | - |
| 1777244452 | 25° C | 26% | 1010.1 hPa | 0 mm | - | - | - |
| 1777243547 | 24.44° C | 27% | 1010.2 hPa | 0 mm | - | - | - |
| 1777242652 | 24.44° C | 27% | 1010.4 hPa | 0 mm | - | - | - |
| 1777240857 | 25° C | 27% | 1010.7 hPa | 0 mm | - | - | - |
| 1777238153 | 23.89° C | 28% | 1011.2 hPa | 0 mm | - | - | - |
| 1777234548 | 23.33° C | 28% | 1011.7 hPa | 0 mm | - | - | - |
| 1777221958 | 21.11° C | 33% | 1011.9 hPa | 0 mm | - | - | - |
| 1777221049 | 21.11° C | 35% | 1012 hPa | 0 mm | - | - | - |
| 1777220148 | 20° C | 37% | 1011.7 hPa | 0 mm | - | - | - |
| 1777215647 | 18.89° C | 43% | 1010.9 hPa | 0 mm | - | - | - |
| 1777204849 | 18.33° C | 41% | 1008.1 hPa | 0 mm | - | - | - |
| 1777203052 | 18.89° C | 40% | 1007.9 hPa | 0 mm | - | - | - |
| 1777201246 | 19.44° C | 38% | 1007.8 hPa | 0 mm | - | - | - |
| 1777193152 | 21.11° C | 31% | 1007.8 hPa | 0 mm | - | - | - |
| 1777192254 | 21.67° C | 30% | 1007.9 hPa | 0 mm | - | - | - |
| 1777182347 | 23.89° C | 26% | 1008 hPa | 0 mm | - | - | - |
| 1777180551 | 24.44° C | 25% | 1008.1 hPa | 0 mm | - | - | - |
| 1777168863 | 26.67° C | 22% | 1007.4 hPa | 0 mm | - | - | - |
* Rain latest hour (hover to see other rain measurements)
** Current wind speed in m/s (hover to see current wind gust speed)